createdAt,value
2022-12-17T00:00:41.202Z,90.20
2022-12-17T00:01:41.189Z,90.20
2022-12-17T00:02:41.313Z,90.20
2022-12-17T00:03:42.108Z,90.20
2022-12-17T00:04:46.202Z,90.52
2022-12-17T00:05:41.135Z,90.73
2022-12-17T00:06:41.121Z,90.52
2022-12-17T00:07:41.148Z,90.41
2022-12-17T00:08:41.100Z,90.31
2022-12-17T00:09:43.520Z,90.41
2022-12-17T00:10:41.074Z,90.48
2022-12-17T00:11:41.061Z,90.73
2022-12-17T00:12:41.055Z,90.62
2022-12-17T00:13:41.036Z,90.73
2022-12-17T00:14:41.408Z,90.62
2022-12-17T00:15:46.058Z,90.52
2022-12-17T00:16:41.057Z,90.83
2022-12-17T00:17:41.002Z,90.52
2022-12-17T00:18:41.005Z,90.67
2022-12-17T00:19:40.984Z,90.62
2022-12-17T00:20:41.067Z,90.20
2022-12-17T00:21:40.953Z,90.20
2022-12-17T00:22:41.031Z,90.14
2022-12-17T00:23:40.929Z,90.20
2022-12-17T00:24:40.968Z,90.20
2022-12-17T00:25:40.950Z,90.14
2022-12-17T00:26:45.963Z,90.25
2022-12-17T00:27:40.996Z,90.35
2022-12-17T00:28:40.903Z,90.25
2022-12-17T00:29:40.863Z,90.25
2022-12-17T00:30:40.887Z,90.35
2022-12-17T00:31:40.949Z,90.25
2022-12-17T00:32:40.827Z,90.56
2022-12-17T00:33:40.892Z,90.41
2022-12-17T00:34:40.841Z,90.25
2022-12-17T00:35:40.807Z,90.45
2022-12-17T00:36:40.785Z,90.41
2022-12-17T00:37:45.814Z,90.14
2022-12-17T00:38:40.766Z,90.35
2022-12-17T00:39:40.783Z,90.67
2022-12-17T00:40:40.767Z,90.77
2022-12-17T00:41:40.754Z,90.67
2022-12-17T00:42:40.790Z,90.56
2022-12-17T00:43:40.715Z,90.56
2022-12-17T00:44:40.699Z,90.56
2022-12-17T00:45:40.701Z,90.45
2022-12-17T00:46:40.797Z,90.14
2022-12-17T00:47:40.676Z,90.25
2022-12-17T00:48:45.678Z,90.35
2022-12-17T00:49:40.651Z,90.25
2022-12-17T00:50:40.683Z,90.25
2022-12-17T00:51:40.627Z,90.03
2022-12-17T00:52:40.612Z,90.03
2022-12-17T00:53:40.613Z,90.03
2022-12-17T00:54:40.639Z,90.03
2022-12-17T00:55:40.577Z,90.03
2022-12-17T00:56:40.579Z,89.76
2022-12-17T00:57:40.568Z,89.86
2022-12-17T00:58:40.555Z,90.18
2022-12-17T00:59:45.563Z,90.33
2022-12-17T01:00:40.642Z,90.75
2022-12-17T01:01:40.784Z,90.85
2022-12-17T01:02:40.709Z,90.85
2022-12-17T01:03:40.492Z,90.54
2022-12-17T01:04:40.479Z,90.43
2022-12-17T01:05:40.494Z,90.75
2022-12-17T01:06:40.470Z,90.64
2022-12-17T01:07:40.444Z,90.75
2022-12-17T01:08:40.487Z,90.54
2022-12-17T01:09:40.427Z,91.49
2022-12-17T01:10:45.453Z,90.96
2022-12-17T01:11:40.413Z,91.28
2022-12-17T01:12:40.389Z,91.28
2022-12-17T01:13:40.384Z,91.17
2022-12-17T01:14:40.442Z,91.06
2022-12-17T01:15:40.368Z,91.63
2022-12-17T01:16:40.449Z,91.49
2022-12-17T01:17:40.382Z,90.96
2022-12-17T01:18:40.346Z,91.53
2022-12-17T01:19:40.318Z,91.42
2022-12-17T01:20:40.322Z,91.53
2022-12-17T01:21:45.352Z,91.00
2022-12-17T01:22:40.291Z,91.53
2022-12-17T01:23:40.367Z,91.21
2022-12-17T01:24:40.266Z,91.85
2022-12-17T01:25:40.275Z,91.74
2022-12-17T01:26:40.254Z,91.74
2022-12-17T01:27:40.258Z,91.53
2022-12-17T01:28:40.254Z,91.85
2022-12-17T01:29:40.227Z,91.85
2022-12-17T01:30:40.192Z,91.95
2022-12-17T01:31:40.234Z,91.42
2022-12-17T01:32:45.218Z,91.42
2022-12-17T01:33:40.241Z,91.63
2022-12-17T01:34:40.178Z,91.21
2022-12-17T01:35:40.176Z,91.53
2022-12-17T01:36:40.150Z,91.74
2022-12-17T01:37:40.120Z,91.74
2022-12-17T01:38:40.111Z,91.53
2022-12-17T01:39:40.094Z,91.42
2022-12-17T01:40:40.091Z,91.74
2022-12-17T01:41:40.096Z,91.95
2022-12-17T01:42:40.059Z,91.74
2022-12-17T01:43:45.111Z,91.53
2022-12-17T01:44:40.044Z,91.42
2022-12-17T01:45:40.139Z,91.53
2022-12-17T01:46:40.040Z,91.85
2022-12-17T01:47:40.008Z,91.53
2022-12-17T01:48:40.003Z,91.46
2022-12-17T01:49:39.993Z,91.57
2022-12-17T01:50:39.997Z,91.95
2022-12-17T01:51:39.971Z,91.78
2022-12-17T01:52:39.985Z,91.63
2022-12-17T01:53:39.940Z,91.57
2022-12-17T01:54:44.962Z,91.14
2022-12-17T01:55:39.922Z,91.57
2022-12-17T01:56:39.908Z,91.67
2022-12-17T01:57:39.923Z,91.25
2022-12-17T01:58:39.915Z,91.36
2022-12-17T01:59:39.883Z,91.99
2022-12-17T02:00:40.004Z,91.78
2022-12-17T02:01:40.174Z,91.78
2022-12-17T02:02:40.081Z,91.46
2022-12-17T02:03:39.830Z,91.46
2022-12-17T02:04:39.823Z,91.99
2022-12-17T02:05:44.853Z,91.89
2022-12-17T02:06:39.802Z,91.46
2022-12-17T02:07:39.962Z,91.53
2022-12-17T02:08:39.777Z,91.74
2022-12-17T02:09:39.766Z,91.42
2022-12-17T02:10:39.758Z,91.00
2022-12-17T02:11:39.769Z,91.36
2022-12-17T02:12:39.757Z,91.25
2022-12-17T02:13:39.724Z,91.25
2022-12-17T02:14:39.725Z,91.25
2022-12-17T02:15:39.761Z,90.83
2022-12-17T02:16:44.763Z,90.94
2022-12-17T02:17:39.756Z,90.83
2022-12-17T02:18:39.684Z,90.62
2022-12-17T02:19:39.660Z,90.62
2022-12-17T02:20:39.678Z,90.45
2022-12-17T02:21:39.653Z,90.87
2022-12-17T02:22:39.631Z,90.87
2022-12-17T02:23:39.784Z,90.98
2022-12-17T02:24:39.672Z,90.87
2022-12-17T02:25:39.591Z,91.40
2022-12-17T02:26:39.587Z,91.30
2022-12-17T02:27:44.658Z,91.50
2022-12-17T02:28:39.575Z,91.30
2022-12-17T02:29:39.548Z,90.98
2022-12-17T02:30:39.542Z,90.81
2022-12-17T02:31:39.611Z,90.87
2022-12-17T02:32:39.519Z,91.13
2022-12-17T02:33:39.535Z,91.02
2022-12-17T02:34:39.514Z,91.44
2022-12-17T02:35:39.530Z,91.33
2022-12-17T02:36:39.496Z,91.65
2022-12-17T02:37:39.487Z,91.86
2022-12-17T02:38:44.509Z,91.61
2022-12-17T02:39:39.444Z,91.82
2022-12-17T02:40:39.431Z,91.82
2022-12-17T02:41:39.416Z,91.97
2022-12-17T02:42:39.634Z,92.07
2022-12-17T02:43:39.392Z,91.50
2022-12-17T02:44:39.404Z,91.93
2022-12-17T02:45:39.491Z,92.03
2022-12-17T02:46:39.371Z,91.40
2022-12-17T02:47:39.378Z,92.03
2022-12-17T02:48:39.360Z,90.98
2022-12-17T02:49:44.433Z,91.40
2022-12-17T02:50:39.318Z,91.72
2022-12-17T02:51:39.370Z,91.57
2022-12-17T02:52:39.300Z,91.30
2022-12-17T02:53:39.305Z,91.40
2022-12-17T02:54:39.295Z,91.40
2022-12-17T02:55:39.267Z,91.61
2022-12-17T02:56:39.263Z,91.40
2022-12-17T02:57:43.635Z,91.50
2022-12-17T02:58:39.230Z,91.93
2022-12-17T02:59:39.236Z,92.24
2022-12-17T03:00:44.273Z,91.93
2022-12-17T03:01:39.409Z,91.82
2022-12-17T03:02:39.292Z,91.61
2022-12-17T03:03:39.774Z,91.82
2022-12-17T03:04:39.194Z,91.89
2022-12-17T03:05:46.383Z,91.72
2022-12-17T03:06:40.154Z,91.72
2022-12-17T03:07:39.137Z,91.61
2022-12-17T03:08:39.128Z,92.24
2022-12-17T03:09:39.132Z,91.99
2022-12-17T03:10:39.115Z,92.35
2022-12-17T03:11:44.123Z,92.24
2022-12-17T03:12:39.087Z,92.52
2022-12-17T03:13:39.067Z,92.56
2022-12-17T03:14:39.093Z,92.56
2022-12-17T03:15:39.053Z,92.52
2022-12-17T03:16:39.102Z,92.46
2022-12-17T03:17:39.023Z,92.24
2022-12-17T03:18:39.021Z,92.41
2022-12-17T03:19:38.999Z,92.35
2022-12-17T03:20:39.008Z,92.14
2022-12-17T03:21:38.984Z,92.24
2022-12-17T03:22:43.998Z,92.35
2022-12-17T03:23:39.305Z,91.93
2022-12-17T03:24:38.952Z,92.35
2022-12-17T03:25:38.969Z,92.39
2022-12-17T03:26:38.923Z,92.18
2022-12-17T03:27:38.914Z,92.03
2022-12-17T03:28:38.904Z,92.88
2022-12-17T03:29:45.259Z,92.07
2022-12-17T03:30:39.282Z,93.13
2022-12-17T03:31:38.954Z,92.92
2022-12-17T03:32:38.866Z,92.50
2022-12-17T03:33:43.884Z,92.50
2022-12-17T03:34:38.839Z,92.39
2022-12-17T03:35:38.837Z,93.13
2022-12-17T03:36:38.820Z,93.13
2022-12-17T03:37:38.805Z,93.24
2022-12-17T03:38:38.806Z,92.71
2022-12-17T03:39:38.782Z,92.96
2022-12-17T03:40:38.785Z,92.22
2022-12-17T03:41:38.778Z,92.54
2022-12-17T03:42:38.757Z,92.43
2022-12-17T03:43:38.901Z,92.75
2022-12-17T03:44:43.769Z,92.65
2022-12-17T03:45:38.817Z,92.54
2022-12-17T03:46:38.730Z,92.86
2022-12-17T03:47:38.700Z,92.65
2022-12-17T03:48:38.683Z,92.33
2022-12-17T03:49:38.672Z,92.43
2022-12-17T03:50:38.688Z,92.54
2022-12-17T03:51:38.658Z,92.86
2022-12-17T03:52:38.647Z,92.11
2022-12-17T03:53:38.974Z,92.22
2022-12-17T03:54:38.616Z,92.54
2022-12-17T03:55:43.643Z,92.33
2022-12-17T03:56:38.597Z,92.54
2022-12-17T03:57:38.634Z,92.22
2022-12-17T03:58:38.647Z,92.75
2022-12-17T03:59:38.581Z,92.11
2022-12-17T04:00:38.551Z,92.86
2022-12-17T04:01:38.710Z,92.86
2022-12-17T04:02:38.832Z,92.75
2022-12-17T04:03:39.161Z,92.01
2022-12-17T04:04:38.508Z,92.54
2022-12-17T04:05:38.496Z,92.16
2022-12-17T04:06:43.524Z,93.01
2022-12-17T04:07:38.479Z,92.65
2022-12-17T04:08:38.475Z,92.75
2022-12-17T04:09:38.470Z,93.18
2022-12-17T04:10:38.450Z,92.96
2022-12-17T04:11:38.459Z,92.54
2022-12-17T04:12:38.423Z,92.86
2022-12-17T04:13:41.019Z,92.65
2022-12-17T04:14:38.401Z,92.96
2022-12-17T04:15:38.431Z,92.11
2022-12-17T04:16:38.395Z,92.22
2022-12-17T04:17:43.391Z,92.43
2022-12-17T04:18:38.355Z,92.22
2022-12-17T04:19:38.376Z,92.43
2022-12-17T04:20:38.331Z,92.33
2022-12-17T04:21:38.331Z,92.33
2022-12-17T04:22:38.310Z,92.11
2022-12-17T04:23:38.803Z,92.96
2022-12-17T04:24:38.287Z,92.96
2022-12-17T04:25:38.284Z,92.54
2022-12-17T04:26:38.288Z,92.11
2022-12-17T04:27:38.256Z,91.59
2022-12-17T04:28:43.289Z,91.74
2022-12-17T04:29:38.240Z,92.69
2022-12-17T04:30:38.299Z,91.63
2022-12-17T04:31:38.258Z,92.69
2022-12-17T04:32:38.212Z,92.26
2022-12-17T04:33:38.609Z,92.62
2022-12-17T04:34:38.179Z,92.58
2022-12-17T04:35:38.172Z,92.94
2022-12-17T04:36:38.158Z,92.79
2022-12-17T04:37:38.166Z,93.15
2022-12-17T04:38:38.136Z,92.58
2022-12-17T04:39:43.147Z,92.41
2022-12-17T04:40:38.114Z,92.30
2022-12-17T04:41:38.111Z,92.41
2022-12-17T04:42:38.097Z,92.94
2022-12-17T04:43:38.607Z,92.41
2022-12-17T04:44:38.088Z,92.20
2022-12-17T04:45:38.062Z,93.37
2022-12-17T04:46:38.117Z,92.41
2022-12-17T04:47:38.065Z,92.41
2022-12-17T04:48:38.043Z,92.56
2022-12-17T04:49:38.029Z,92.45
2022-12-17T04:50:43.028Z,92.62
2022-12-17T04:51:37.997Z,92.45
2022-12-17T04:52:38.009Z,92.45
2022-12-17T04:53:38.451Z,92.77
2022-12-17T04:54:37.959Z,92.77
2022-12-17T04:55:37.950Z,92.45
2022-12-17T04:56:37.937Z,92.45
2022-12-17T04:57:37.977Z,92.24
2022-12-17T04:58:37.931Z,92.77
2022-12-17T04:59:37.924Z,92.24
2022-12-17T05:00:37.912Z,91.93
2022-12-17T05:01:43.082Z,91.86
2022-12-17T05:02:42.466Z,92.45
2022-12-17T05:03:39.425Z,92.66
2022-12-17T05:04:37.851Z,92.49
2022-12-17T05:05:37.848Z,92.66
2022-12-17T05:06:37.828Z,93.09
2022-12-17T05:07:37.819Z,93.09
2022-12-17T05:08:41.364Z,93.19
2022-12-17T05:09:37.799Z,93.13
2022-12-17T05:10:37.795Z,93.09
2022-12-17T05:11:37.775Z,92.98
2022-12-17T05:12:42.784Z,92.45
2022-12-17T05:13:38.121Z,92.60
2022-12-17T05:14:37.745Z,92.88
2022-12-17T05:15:37.777Z,92.66
2022-12-17T05:16:37.811Z,92.98
2022-12-17T05:17:37.711Z,93.41
2022-12-17T05:18:37.706Z,93.41
2022-12-17T05:19:37.696Z,92.98
2022-12-17T05:20:37.678Z,93.41
2022-12-17T05:21:37.670Z,93.41
2022-12-17T05:22:37.659Z,93.30
2022-12-17T05:23:42.665Z,93.83
2022-12-17T05:24:37.642Z,93.73
2022-12-17T05:25:37.627Z,93.62
2022-12-17T05:26:37.614Z,93.19
2022-12-17T05:27:37.615Z,93.41
2022-12-17T05:28:37.597Z,93.30
2022-12-17T05:29:37.588Z,93.51
2022-12-17T05:30:37.571Z,93.41
2022-12-17T05:31:37.608Z,93.09
2022-12-17T05:32:37.623Z,93.51
2022-12-17T05:33:37.890Z,93.15
2022-12-17T05:34:42.564Z,93.30
2022-12-17T05:35:37.519Z,93.68
2022-12-17T05:36:37.512Z,93.79
2022-12-17T05:37:37.492Z,93.05
2022-12-17T05:38:37.480Z,93.57
2022-12-17T05:39:37.485Z,93.57
2022-12-17T05:40:37.469Z,93.15
2022-12-17T05:41:37.450Z,93.57
2022-12-17T05:42:37.448Z,93.57
2022-12-17T05:43:37.884Z,93.15
2022-12-17T05:44:37.435Z,93.57
2022-12-17T05:45:42.429Z,93.47
2022-12-17T05:46:37.487Z,93.37
2022-12-17T05:47:37.384Z,93.57
2022-12-17T05:48:37.393Z,93.68
2022-12-17T05:49:37.376Z,93.05
2022-12-17T05:50:37.363Z,93.26
2022-12-17T05:51:38.983Z,93.68
2022-12-17T05:52:37.328Z,94.00
2022-12-17T05:53:37.707Z,93.68
2022-12-17T05:54:37.317Z,93.47
2022-12-17T05:55:37.730Z,92.94
2022-12-17T05:56:42.306Z,93.43
2022-12-17T05:57:37.281Z,93.64
2022-12-17T05:58:37.267Z,93.47
2022-12-17T05:59:37.274Z,93.37
2022-12-17T06:00:37.253Z,93.05
2022-12-17T06:01:37.313Z,93.68
2022-12-17T06:02:37.343Z,93.57
2022-12-17T06:03:37.889Z,93.15
2022-12-17T06:04:37.237Z,93.89
2022-12-17T06:05:37.205Z,93.57
2022-12-17T06:06:37.182Z,93.37
2022-12-17T06:07:42.193Z,92.62
2022-12-17T06:08:37.160Z,92.94
2022-12-17T06:09:37.217Z,92.88
2022-12-17T06:10:37.154Z,92.35
2022-12-17T06:11:37.125Z,92.45
2022-12-17T06:12:37.114Z,92.45
2022-12-17T06:13:37.589Z,92.35
2022-12-17T06:14:37.138Z,92.77
2022-12-17T06:15:37.083Z,92.24
2022-12-17T06:16:37.147Z,92.39
2022-12-17T06:17:37.063Z,91.44
2022-12-17T06:18:42.072Z,92.07
2022-12-17T06:19:37.066Z,91.69
2022-12-17T06:20:37.045Z,92.00
2022-12-17T06:21:37.043Z,91.47
2022-12-17T06:22:37.009Z,91.90
2022-12-17T06:23:37.413Z,92.22
2022-12-17T06:24:40.186Z,92.22
2022-12-17T06:25:38.036Z,92.22
2022-12-17T06:26:36.964Z,92.64
2022-12-17T06:27:36.953Z,91.58
2022-12-17T06:28:36.942Z,91.94
2022-12-17T06:29:41.951Z,92.58
2022-12-17T06:30:36.939Z,92.79
2022-12-17T06:31:36.976Z,93.00
2022-12-17T06:32:36.900Z,92.51
2022-12-17T06:33:37.220Z,92.47
2022-12-17T06:34:36.882Z,92.47
2022-12-17T06:35:36.883Z,93.26
2022-12-17T06:36:36.876Z,93.04
2022-12-17T06:37:36.858Z,92.72
2022-12-17T06:38:36.838Z,93.83
2022-12-17T06:39:36.820Z,93.51
2022-12-17T06:40:41.847Z,93.62
2022-12-17T06:41:36.814Z,93.93
2022-12-17T06:42:36.793Z,94.25
2022-12-17T06:43:37.124Z,94.42
2022-12-17T06:44:36.772Z,94.32
2022-12-17T06:45:36.774Z,93.64
2022-12-17T06:46:36.798Z,94.06
2022-12-17T06:47:36.736Z,93.74
2022-12-17T06:48:36.731Z,93.53
2022-12-17T06:49:36.711Z,92.68
2022-12-17T06:50:36.715Z,93.11
2022-12-17T06:51:41.734Z,92.79
2022-12-17T06:52:36.681Z,92.36
2022-12-17T06:53:37.229Z,92.79
2022-12-17T06:54:36.671Z,93.04
2022-12-17T06:55:36.679Z,92.72
2022-12-17T06:56:36.638Z,92.51
2022-12-17T06:57:40.820Z,92.83
2022-12-17T06:58:37.623Z,92.77
2022-12-17T06:59:36.616Z,93.51
2022-12-17T07:00:36.739Z,93.83
2022-12-17T07:01:36.935Z,94.00
2022-12-17T07:02:41.718Z,93.36
2022-12-17T07:03:37.105Z,93.89
2022-12-17T07:04:36.552Z,93.47
2022-12-17T07:05:36.552Z,93.83
2022-12-17T07:06:36.532Z,94.00
2022-12-17T07:07:36.550Z,94.64
2022-12-17T07:08:36.525Z,94.38
2022-12-17T07:09:36.506Z,94.42
2022-12-17T07:10:36.496Z,93.74
2022-12-17T07:11:36.499Z,93.79
2022-12-17T07:12:36.468Z,93.79
2022-12-17T07:13:41.475Z,93.57
2022-12-17T07:14:36.443Z,93.68
2022-12-17T07:15:36.445Z,93.89
2022-12-17T07:16:36.525Z,93.47
2022-12-17T07:17:36.416Z,93.85
2022-12-17T07:18:36.404Z,93.53
2022-12-17T07:19:36.391Z,93.53
2022-12-17T07:20:36.397Z,93.64
2022-12-17T07:21:36.414Z,93.74
2022-12-17T07:22:36.388Z,93.11
2022-12-17T07:23:36.757Z,93.43
2022-12-17T07:24:41.368Z,92.79
2022-12-17T07:25:36.337Z,92.79
2022-12-17T07:26:36.367Z,93.17
2022-12-17T07:27:36.317Z,93.17
2022-12-17T07:28:38.141Z,93.17
2022-12-17T07:29:39.990Z,92.36
2022-12-17T07:30:37.270Z,92.68
2022-12-17T07:31:36.356Z,93.21
2022-12-17T07:32:36.251Z,92.68
2022-12-17T07:33:36.793Z,93.43
2022-12-17T07:34:36.229Z,93.11
2022-12-17T07:35:41.246Z,92.96
2022-12-17T07:36:36.218Z,92.85
2022-12-17T07:37:36.206Z,92.75
2022-12-17T07:38:36.188Z,92.54
2022-12-17T07:39:36.193Z,93.17
2022-12-17T07:40:36.176Z,92.43
2022-12-17T07:41:36.173Z,92.54
2022-12-17T07:42:36.149Z,92.90
2022-12-17T07:43:36.554Z,92.96
2022-12-17T07:44:36.140Z,93.07
2022-12-17T07:45:36.184Z,93.28
2022-12-17T07:46:41.137Z,93.07
2022-12-17T07:47:36.114Z,93.17
2022-12-17T07:48:36.136Z,92.96
2022-12-17T07:49:36.067Z,93.07
2022-12-17T07:50:36.075Z,93.55
2022-12-17T07:51:36.074Z,92.71
2022-12-17T07:52:36.037Z,93.13
2022-12-17T07:53:36.339Z,93.24
2022-12-17T07:54:36.014Z,93.24
2022-12-17T07:55:36.028Z,93.24
2022-12-17T07:56:36.007Z,93.24
2022-12-17T07:57:41.013Z,93.13
2022-12-17T07:58:35.973Z,93.30
2022-12-17T07:59:35.966Z,92.71
2022-12-17T08:00:35.947Z,92.56
2022-12-17T08:01:36.096Z,92.45
2022-12-17T08:02:36.285Z,93.19
2022-12-17T08:03:36.478Z,93.09
2022-12-17T08:04:35.921Z,93.30
2022-12-17T08:05:36.036Z,93.24
2022-12-17T08:06:35.972Z,92.92
2022-12-17T08:07:35.896Z,93.09
2022-12-17T08:08:40.964Z,92.88
2022-12-17T08:09:35.862Z,92.88
2022-12-17T08:10:35.926Z,92.88
2022-12-17T08:11:35.843Z,92.66
2022-12-17T08:12:35.850Z,92.77
2022-12-17T08:13:36.196Z,92.77
2022-12-17T08:14:35.796Z,92.88
2022-12-17T08:15:35.796Z,93.30
2022-12-17T08:16:35.996Z,93.73
2022-12-17T08:17:35.819Z,93.41
2022-12-17T08:18:35.752Z,92.83
2022-12-17T08:19:40.761Z,92.98
2022-12-17T08:20:35.733Z,93.19
2022-12-17T08:21:35.739Z,92.77
2022-12-17T08:22:35.718Z,92.83
2022-12-17T08:23:36.090Z,92.73
2022-12-17T08:24:35.698Z,92.73
2022-12-17T08:25:35.676Z,92.94
2022-12-17T08:26:35.665Z,93.05
2022-12-17T08:27:35.695Z,92.83
2022-12-17T08:28:50.391Z,92.83
2022-12-17T08:29:36.635Z,92.73
2022-12-17T08:30:40.737Z,93.05
2022-12-17T08:31:35.609Z,93.53
2022-12-17T08:32:35.608Z,94.32
2022-12-17T08:33:36.069Z,93.79
2022-12-17T08:34:35.589Z,93.79
2022-12-17T08:35:35.567Z,94.53
2022-12-17T08:36:35.626Z,94.53
2022-12-17T08:37:35.571Z,94.95
2022-12-17T08:38:35.559Z,94.74
2022-12-17T08:39:35.524Z,95.01
2022-12-17T08:40:35.528Z,94.59
2022-12-17T08:41:40.581Z,94.65
2022-12-17T08:42:35.530Z,94.38
2022-12-17T08:43:35.908Z,94.48
2022-12-17T08:44:35.497Z,93.85
2022-12-17T08:45:35.585Z,94.17
2022-12-17T08:46:35.624Z,94.06
2022-12-17T08:47:35.498Z,93.85
2022-12-17T08:48:35.436Z,94.06
2022-12-17T08:49:35.418Z,93.70
2022-12-17T08:50:35.440Z,93.32
2022-12-17T08:51:35.410Z,93.64
2022-12-17T08:52:40.419Z,93.49
2022-12-17T08:53:35.556Z,93.28
2022-12-17T08:54:35.384Z,93.60
2022-12-17T08:55:35.363Z,92.96
2022-12-17T08:56:35.367Z,92.54
2022-12-17T08:57:35.354Z,92.96
2022-12-17T08:58:35.367Z,92.86
2022-12-17T08:59:35.345Z,92.33
2022-12-17T09:00:35.350Z,92.11
2022-12-17T09:01:35.511Z,92.86
2022-12-17T09:02:35.439Z,92.96
2022-12-17T09:03:40.774Z,92.96
2022-12-17T09:04:35.261Z,92.54
2022-12-17T09:05:35.241Z,92.58
2022-12-17T09:06:39.096Z,92.20
2022-12-17T09:07:35.223Z,93.26
2022-12-17T09:08:35.246Z,92.58
2022-12-17T09:09:35.209Z,92.58
2022-12-17T09:10:35.214Z,92.58
2022-12-17T09:11:35.192Z,93.15
2022-12-17T09:12:35.173Z,93.53
2022-12-17T09:13:35.530Z,94.42
2022-12-17T09:14:40.181Z,94.32
2022-12-17T09:15:35.137Z,94.21
2022-12-17T09:16:35.208Z,93.68
2022-12-17T09:17:35.111Z,93.89
2022-12-17T09:18:35.114Z,94.10
2022-12-17T09:19:35.089Z,94.10
2022-12-17T09:20:35.079Z,94.38
2022-12-17T09:21:35.070Z,94.38
2022-12-17T09:22:35.061Z,94.32
2022-12-17T09:23:35.560Z,94.59
2022-12-17T09:24:35.044Z,94.48
2022-12-17T09:25:40.049Z,94.48
2022-12-17T09:26:35.015Z,94.53
2022-12-17T09:27:35.014Z,94.53
2022-12-17T09:28:35.005Z,94.74
2022-12-17T09:29:34.989Z,95.27
2022-12-17T09:30:35.103Z,96.08
2022-12-17T09:31:37.427Z,95.54
2022-12-17T09:32:34.953Z,95.01
2022-12-17T09:33:35.382Z,95.12
2022-12-17T09:34:34.935Z,94.91
2022-12-17T09:35:34.927Z,94.70
2022-12-17T09:36:39.930Z,94.34
2022-12-17T09:37:34.902Z,93.81
2022-12-17T09:38:34.895Z,94.02
2022-12-17T09:39:34.885Z,94.06
2022-12-17T09:40:34.899Z,94.02
2022-12-17T09:41:34.862Z,94.02
2022-12-17T09:42:34.839Z,93.38
2022-12-17T09:43:35.180Z,93.07
2022-12-17T09:44:34.940Z,93.60
2022-12-17T09:45:34.806Z,93.49
2022-12-17T09:46:35.044Z,93.18
2022-12-17T09:47:39.805Z,93.38
2022-12-17T09:48:34.772Z,93.38
2022-12-17T09:49:34.782Z,93.32
2022-12-17T09:50:34.756Z,93.28
2022-12-17T09:51:34.764Z,92.86
2022-12-17T09:52:34.758Z,93.49
2022-12-17T09:53:35.133Z,93.70
2022-12-17T09:54:34.739Z,93.49
2022-12-17T09:55:34.745Z,93.34
2022-12-17T09:56:34.838Z,93.45
2022-12-17T09:57:34.738Z,93.24
2022-12-17T09:58:39.686Z,93.34
2022-12-17T09:59:34.658Z,93.24
2022-12-17T10:00:34.642Z,93.45
2022-12-17T10:01:34.809Z,92.99
2022-12-17T10:02:34.840Z,92.29
2022-12-17T10:03:35.041Z,92.46
2022-12-17T10:04:34.616Z,92.35
2022-12-17T10:05:34.611Z,92.24
2022-12-17T10:06:34.577Z,92.24
2022-12-17T10:07:34.609Z,91.93
2022-12-17T10:08:34.606Z,91.93
2022-12-17T10:09:39.616Z,91.19
2022-12-17T10:10:34.531Z,91.72
2022-12-17T10:11:35.032Z,90.66
2022-12-17T10:12:34.526Z,91.40
2022-12-17T10:13:35.080Z,91.50
2022-12-17T10:14:34.580Z,91.65
2022-12-17T10:15:34.606Z,91.72
2022-12-17T10:16:34.468Z,91.82
2022-12-17T10:17:34.455Z,92.07
2022-12-17T10:18:34.472Z,92.29
2022-12-17T10:19:34.509Z,92.29
2022-12-17T10:20:39.485Z,92.29
2022-12-17T10:21:34.413Z,92.60
2022-12-17T10:22:37.899Z,93.34
2022-12-17T10:23:34.818Z,92.39
2022-12-17T10:24:34.403Z,92.60
2022-12-17T10:25:34.411Z,92.92
2022-12-17T10:26:34.360Z,92.29
2022-12-17T10:27:34.348Z,92.71
2022-12-17T10:28:34.335Z,92.07
2022-12-17T10:29:34.342Z,92.56
2022-12-17T10:30:34.345Z,92.35
2022-12-17T10:31:39.438Z,92.63
2022-12-17T10:32:34.294Z,92.73
2022-12-17T10:33:34.628Z,92.41
2022-12-17T10:34:34.302Z,91.36
2022-12-17T10:35:34.264Z,91.42
2022-12-17T10:36:34.261Z,91.53
2022-12-17T10:37:34.290Z,91.31
2022-12-17T10:38:34.227Z,90.89
2022-12-17T10:39:34.258Z,90.69
2022-12-17T10:40:34.204Z,90.37
2022-12-17T10:41:34.204Z,90.47
2022-12-17T10:42:39.201Z,90.16
2022-12-17T10:43:34.479Z,90.26
2022-12-17T10:44:34.169Z,89.84
2022-12-17T10:45:34.175Z,89.84
2022-12-17T10:46:34.199Z,89.52
2022-12-17T10:47:34.129Z,89.63
2022-12-17T10:48:34.192Z,89.48
2022-12-17T10:49:34.149Z,89.20
2022-12-17T10:50:34.175Z,89.52
2022-12-17T10:51:34.088Z,89.52
2022-12-17T10:52:34.099Z,89.63
2022-12-17T10:53:39.726Z,89.84
2022-12-17T10:54:34.068Z,89.79
2022-12-17T10:55:34.138Z,89.90
2022-12-17T10:56:34.059Z,90.33
2022-12-17T10:57:34.023Z,90.11
2022-12-17T10:58:34.026Z,90.18
2022-12-17T10:59:34.081Z,89.97
2022-12-17T11:00:34.000Z,89.97
2022-12-17T11:01:34.133Z,89.97
2022-12-17T11:02:34.053Z,89.54
2022-12-17T11:03:34.229Z,89.34
2022-12-17T11:04:39.004Z,88.95
2022-12-17T11:05:34.183Z,88.28
2022-12-17T11:06:37.503Z,88.81
2022-12-17T11:07:35.021Z,89.12
2022-12-17T11:08:34.181Z,88.92
2022-12-17T11:09:33.905Z,89.12
2022-12-17T11:10:33.946Z,89.12
2022-12-17T11:11:33.935Z,89.02
2022-12-17T11:12:33.874Z,89.23
2022-12-17T11:13:34.263Z,88.92
2022-12-17T11:14:33.832Z,89.02
2022-12-17T11:15:38.903Z,89.34
2022-12-17T11:16:33.957Z,89.76
2022-12-17T11:17:33.837Z,89.34
2022-12-17T11:18:33.827Z,89.02
2022-12-17T11:19:33.779Z,89.02
2022-12-17T11:20:33.797Z,88.87
2022-12-17T11:21:33.757Z,88.60
2022-12-17T11:22:33.774Z,88.45
2022-12-17T11:23:34.013Z,87.96
2022-12-17T11:24:33.731Z,88.21
2022-12-17T11:25:33.798Z,88.46
2022-12-17T11:26:38.800Z,89.20
2022-12-17T11:27:33.690Z,89.73
2022-12-17T11:28:33.797Z,90.16
2022-12-17T11:29:33.680Z,90.16
2022-12-17T11:30:33.674Z,90.43
2022-12-17T11:31:33.727Z,90.01
2022-12-17T11:32:33.647Z,89.59
2022-12-17T11:33:33.834Z,89.69
2022-12-17T11:34:33.617Z,89.69
2022-12-17T11:35:33.601Z,89.37
2022-12-17T11:36:38.685Z,89.37
2022-12-17T11:37:39.631Z,89.23
2022-12-17T11:38:33.844Z,89.17
2022-12-17T11:39:33.573Z,88.92
2022-12-17T11:40:33.572Z,88.92
2022-12-17T11:41:33.547Z,88.60
2022-12-17T11:42:33.565Z,88.81
2022-12-17T11:43:33.512Z,88.77
2022-12-17T11:44:33.503Z,88.49
2022-12-17T11:45:33.493Z,88.24
2022-12-17T11:46:33.635Z,88.35
2022-12-17T11:47:33.514Z,88.03
2022-12-17T11:48:39.097Z,88.35
2022-12-17T11:49:33.460Z,87.82
2022-12-17T11:50:33.434Z,87.93
2022-12-17T11:51:33.434Z,87.93
2022-12-17T11:52:33.413Z,87.19
2022-12-17T11:53:33.459Z,87.19
2022-12-17T11:54:33.399Z,87.29
2022-12-17T11:55:33.390Z,87.08
2022-12-17T11:56:33.413Z,87.19
2022-12-17T11:57:33.370Z,86.72
2022-12-17T11:58:33.503Z,86.62
2022-12-17T11:59:38.376Z,86.34
2022-12-17T12:00:33.326Z,86.52
2022-12-17T12:01:33.444Z,85.78
2022-12-17T12:02:33.334Z,86.72
2022-12-17T12:03:33.372Z,87.08
2022-12-17T12:04:33.297Z,86.94
2022-12-17T12:05:33.297Z,86.62
2022-12-17T12:06:33.271Z,86.94
2022-12-17T12:07:33.255Z,86.13
2022-12-17T12:08:33.366Z,86.03
2022-12-17T12:09:33.258Z,85.71
2022-12-17T12:10:38.280Z,86.03
2022-12-17T12:11:33.245Z,86.55
2022-12-17T12:12:33.196Z,86.24
2022-12-17T12:13:33.283Z,86.38
2022-12-17T12:14:33.215Z,86.70
2022-12-17T12:15:33.172Z,86.34
2022-12-17T12:16:33.313Z,86.80
2022-12-17T12:17:33.274Z,86.70
2022-12-17T12:18:33.127Z,86.74
2022-12-17T12:19:33.120Z,86.91
2022-12-17T12:20:33.140Z,86.80
2022-12-17T12:21:38.136Z,87.12
2022-12-17T12:22:33.096Z,87.37
2022-12-17T12:23:33.088Z,87.52
2022-12-17T12:24:33.090Z,88.26
2022-12-17T12:25:33.078Z,88.26
2022-12-17T12:26:33.051Z,88.43
2022-12-17T12:27:36.576Z,88.46
2022-12-17T12:28:34.250Z,88.32
2022-12-17T12:29:33.010Z,88.36
2022-12-17T12:30:32.996Z,88.57
2022-12-17T12:31:33.070Z,89.00
2022-12-17T12:32:38.021Z,88.78
2022-12-17T12:33:32.969Z,88.89
2022-12-17T12:34:32.954Z,88.46
2022-12-17T12:35:32.968Z,89.00
2022-12-17T12:36:32.960Z,88.89
2022-12-17T12:37:32.945Z,89.14
2022-12-17T12:38:32.913Z,89.31
2022-12-17T12:39:32.914Z,89.10
2022-12-17T12:40:32.891Z,89.20
2022-12-17T12:41:32.906Z,89.00
2022-12-17T12:42:32.875Z,89.20
2022-12-17T12:43:37.917Z,89.20
2022-12-17T12:44:32.851Z,89.00
2022-12-17T12:45:32.897Z,89.14
2022-12-17T12:46:32.857Z,89.10
2022-12-17T12:47:32.831Z,89.00
2022-12-17T12:48:32.805Z,89.10
2022-12-17T12:49:32.798Z,89.10
2022-12-17T12:50:32.783Z,88.89
2022-12-17T12:51:34.412Z,89.31
2022-12-17T12:52:32.770Z,88.89